sensor_id;sensor_type;location;lat;lon;timestamp;P1;durP1;ratioP1;P2;durP2;ratioP2
54408;SDS011;40315;48.620;9.828;2023-02-28T00:01:08;3.93;;;2.20;;
54408;SDS011;40315;48.620;9.828;2023-02-28T00:03:36;4.03;;;2.33;;
54408;SDS011;40315;48.620;9.828;2023-02-28T00:06:05;3.30;;;2.07;;
54408;SDS011;40315;48.620;9.828;2023-02-28T00:08:37;2.00;;;1.80;;
54408;SDS011;40315;48.620;9.828;2023-02-28T00:11:08;4.63;;;2.23;;
54408;SDS011;40315;48.620;9.828;2023-02-28T00:16:13;2.47;;;2.17;;
54408;SDS011;40315;48.620;9.828;2023-02-28T00:18:45;2.27;;;2.00;;
54408;SDS011;40315;48.620;9.828;2023-02-28T00:21:14;4.80;;;2.30;;
54408;SDS011;40315;48.620;9.828;2023-02-28T00:23:41;3.50;;;2.13;;
54408;SDS011;40315;48.620;9.828;2023-02-28T00:26:09;4.03;;;2.27;;
54408;SDS011;40315;48.620;9.828;2023-02-28T00:28:38;4.73;;;2.50;;
54408;SDS011;40315;48.620;9.828;2023-02-28T00:31:07;2.97;;;2.07;;
54408;SDS011;40315;48.620;9.828;2023-02-28T00:33:38;3.90;;;2.20;;
54408;SDS011;40315;48.620;9.828;2023-02-28T00:36:08;3.43;;;2.10;;
54408;SDS011;40315;48.620;9.828;2023-02-28T00:38:38;4.20;;;2.13;;
54408;SDS011;40315;48.620;9.828;2023-02-28T00:41:06;2.73;;;2.00;;
54408;SDS011;40315;48.620;9.828;2023-02-28T00:43:34;3.10;;;2.20;;
54408;SDS011;40315;48.620;9.828;2023-02-28T00:46:04;3.23;;;2.33;;
54408;SDS011;40315;48.620;9.828;2023-02-28T00:48:33;2.60;;;2.10;;
54408;SDS011;40315;48.620;9.828;2023-02-28T00:51:02;4.27;;;2.33;;
54408;SDS011;40315;48.620;9.828;2023-02-28T00:53:31;3.20;;;2.57;;
54408;SDS011;40315;48.620;9.828;2023-02-28T00:55:58;3.03;;;2.30;;
54408;SDS011;40315;48.620;9.828;2023-02-28T00:58:30;4.03;;;2.07;;
54408;SDS011;40315;48.620;9.828;2023-02-28T01:00:58;3.57;;;2.37;;
54408;SDS011;40315;48.620;9.828;2023-02-28T01:03:25;4.17;;;2.33;;
54408;SDS011;40315;48.620;9.828;2023-02-28T01:05:54;3.00;;;2.07;;
54408;SDS011;40315;48.620;9.828;2023-02-28T01:08:21;3.03;;;2.47;;
54408;SDS011;40315;48.620;9.828;2023-02-28T01:10:49;3.63;;;2.30;;
54408;SDS011;40315;48.620;9.828;2023-02-28T01:13:17;2.97;;;2.30;;
54408;SDS011;40315;48.620;9.828;2023-02-28T01:15:45;3.33;;;2.40;;
54408;SDS011;40315;48.620;9.828;2023-02-28T01:18:16;2.50;;;2.27;;
54408;SDS011;40315;48.620;9.828;2023-02-28T01:20:43;3.07;;;2.10;;
54408;SDS011;40315;48.620;9.828;2023-02-28T01:23:12;4.17;;;2.50;;
54408;SDS011;40315;48.620;9.828;2023-02-28T01:25:39;3.90;;;2.20;;
54408;SDS011;40315;48.620;9.828;2023-02-28T01:28:06;3.30;;;2.20;;
54408;SDS011;40315;48.620;9.828;2023-02-28T01:30:33;2.83;;;2.33;;
54408;SDS011;40315;48.620;9.828;2023-02-28T01:33:03;4.00;;;2.40;;
54408;SDS011;40315;48.620;9.828;2023-02-28T01:35:31;3.73;;;2.30;;
54408;SDS011;40315;48.620;9.828;2023-02-28T01:38:00;3.13;;;2.27;;
54408;SDS011;40315;48.620;9.828;2023-02-28T01:40:29;2.67;;;2.10;;
54408;SDS011;40315;48.620;9.828;2023-02-28T01:42:57;2.77;;;2.10;;
54408;SDS011;40315;48.620;9.828;2023-02-28T02:02:17;3.47;;;2.60;;
54408;SDS011;40315;48.620;9.828;2023-02-28T02:04:50;3.30;;;2.50;;
54408;SDS011;40315;48.620;9.828;2023-02-28T02:07:23;4.13;;;2.80;;
54408;SDS011;40315;48.620;9.828;2023-02-28T02:09:59;3.33;;;2.10;;
54408;SDS011;40315;48.620;9.828;2023-02-28T02:12:27;3.67;;;2.40;;
54408;SDS011;40315;48.620;9.828;2023-02-28T02:15:08;3.37;;;2.83;;
54408;SDS011;40315;48.620;9.828;2023-02-28T02:17:43;3.93;;;2.33;;
54408;SDS011;40315;48.620;9.828;2023-02-28T02:26:26;3.10;;;2.70;;
54408;SDS011;40315;48.620;9.828;2023-02-28T02:35:26;4.17;;;3.03;;
54408;SDS011;40315;48.620;9.828;2023-02-28T02:37:58;3.93;;;3.07;;
54408;SDS011;40315;48.620;9.828;2023-02-28T02:40:36;4.27;;;2.93;;
54408;SDS011;40315;48.620;9.828;2023-02-28T02:43:13;5.37;;;3.00;;
54408;SDS011;40315;48.620;9.828;2023-02-28T02:45:47;4.17;;;3.30;;
54408;SDS011;40315;48.620;9.828;2023-02-28T02:48:21;4.73;;;2.70;;
54408;SDS011;40315;48.620;9.828;2023-02-28T02:50:54;3.87;;;2.93;;
54408;SDS011;40315;48.620;9.828;2023-02-28T02:53:24;3.40;;;3.00;;
54408;SDS011;40315;48.620;9.828;2023-02-28T02:55:59;4.73;;;3.83;;
54408;SDS011;40315;48.620;9.828;2023-02-28T02:58:31;4.20;;;3.00;;
54408;SDS011;40315;48.620;9.828;2023-02-28T03:01:00;6.33;;;3.67;;
54408;SDS011;40315;48.620;9.828;2023-02-28T03:03:32;4.40;;;3.33;;
54408;SDS011;40315;48.620;9.828;2023-02-28T03:06:04;3.97;;;3.03;;
54408;SDS011;40315;48.620;9.828;2023-02-28T03:08:33;4.37;;;3.40;;
54408;SDS011;40315;48.620;9.828;2023-02-28T03:11:04;5.47;;;3.37;;
54408;SDS011;40315;48.620;9.828;2023-02-28T03:16:45;4.03;;;3.10;;
54408;SDS011;40315;48.620;9.828;2023-02-28T03:19:30;4.37;;;3.37;;
54408;SDS011;40315;48.620;9.828;2023-02-28T03:22:26;6.33;;;3.60;;
54408;SDS011;40315;48.620;9.828;2023-02-28T03:25:16;5.83;;;3.57;;
54408;SDS011;40315;48.620;9.828;2023-02-28T03:27:51;4.23;;;3.20;;
54408;SDS011;40315;48.620;9.828;2023-02-28T03:30:27;4.97;;;3.40;;
54408;SDS011;40315;48.620;9.828;2023-02-28T03:35:49;4.93;;;3.90;;
54408;SDS011;40315;48.620;9.828;2023-02-28T03:38:22;4.97;;;3.40;;
54408;SDS011;40315;48.620;9.828;2023-02-28T03:40:56;4.83;;;3.53;;
54408;SDS011;40315;48.620;9.828;2023-02-28T03:43:28;4.37;;;3.20;;
54408;SDS011;40315;48.620;9.828;2023-02-28T03:45:59;5.47;;;3.50;;
54408;SDS011;40315;48.620;9.828;2023-02-28T03:48:31;4.57;;;3.57;;
54408;SDS011;40315;48.620;9.828;2023-02-28T03:51:02;5.70;;;3.73;;
54408;SDS011;40315;48.620;9.828;2023-02-28T03:53:36;4.83;;;3.47;;
54408;SDS011;40315;48.620;9.828;2023-02-28T03:56:14;5.53;;;3.97;;
54408;SDS011;40315;48.620;9.828;2023-02-28T03:58:46;6.53;;;4.23;;
54408;SDS011;40315;48.620;9.828;2023-02-28T04:01:18;6.13;;;3.97;;
54408;SDS011;40315;48.620;9.828;2023-02-28T04:03:48;7.40;;;3.87;;
54408;SDS011;40315;48.620;9.828;2023-02-28T04:06:17;5.57;;;3.90;;
54408;SDS011;40315;48.620;9.828;2023-02-28T04:08:47;5.30;;;3.70;;
54408;SDS011;40315;48.620;9.828;2023-02-28T04:11:18;6.90;;;3.50;;
54408;SDS011;40315;48.620;9.828;2023-02-28T04:13:48;5.03;;;3.77;;
54408;SDS011;40315;48.620;9.828;2023-02-28T04:16:15;6.23;;;4.03;;
54408;SDS011;40315;48.620;9.828;2023-02-28T04:18:43;5.13;;;3.80;;
54408;SDS011;40315;48.620;9.828;2023-02-28T04:21:10;6.50;;;4.17;;
54408;SDS011;40315;48.620;9.828;2023-02-28T04:23:38;6.60;;;3.63;;
54408;SDS011;40315;48.620;9.828;2023-02-28T04:26:07;6.33;;;4.03;;
54408;SDS011;40315;48.620;9.828;2023-02-28T04:28:37;4.30;;;3.40;;
54408;SDS011;40315;48.620;9.828;2023-02-28T04:31:05;6.40;;;4.10;;
54408;SDS011;40315;48.620;9.828;2023-02-28T04:33:32;6.07;;;4.00;;
54408;SDS011;40315;48.620;9.828;2023-02-28T04:36:00;5.43;;;3.97;;
54408;SDS011;40315;48.620;9.828;2023-02-28T04:38:29;6.13;;;4.33;;
54408;SDS011;40315;48.620;9.828;2023-02-28T04:40:57;6.57;;;3.80;;
54408;SDS011;40315;48.620;9.828;2023-02-28T04:43:29;5.43;;;4.13;;
54408;SDS011;40315;48.620;9.828;2023-02-28T04:45:58;5.03;;;3.63;;
54408;SDS011;40315;48.620;9.828;2023-02-28T04:48:28;6.13;;;3.80;;
54408;SDS011;40315;48.620;9.828;2023-02-28T04:50:59;6.03;;;3.97;;
54408;SDS011;40315;48.620;9.828;2023-02-28T04:53:27;6.87;;;4.03;;
54408;SDS011;40315;48.620;9.828;2023-02-28T04:55:57;9.30;;;4.73;;
54408;SDS011;40315;48.620;9.828;2023-02-28T04:58:25;6.53;;;4.77;;
54408;SDS011;40315;48.620;9.828;2023-02-28T05:00:56;5.47;;;4.03;;
54408;SDS011;40315;48.620;9.828;2023-02-28T05:03:28;7.20;;;4.60;;
54408;SDS011;40315;48.620;9.828;2023-02-28T05:05:57;7.93;;;4.67;;
54408;SDS011;40315;48.620;9.828;2023-02-28T05:08:24;6.93;;;4.47;;
54408;SDS011;40315;48.620;9.828;2023-02-28T05:10:51;5.27;;;3.80;;
54408;SDS011;40315;48.620;9.828;2023-02-28T05:13:18;5.23;;;4.33;;
54408;SDS011;40315;48.620;9.828;2023-02-28T05:15:46;6.90;;;4.30;;
54408;SDS011;40315;48.620;9.828;2023-02-28T05:18:16;7.73;;;4.50;;
54408;SDS011;40315;48.620;9.828;2023-02-28T05:20:43;6.20;;;4.43;;
54408;SDS011;40315;48.620;9.828;2023-02-28T05:23:11;6.97;;;4.50;;
54408;SDS011;40315;48.620;9.828;2023-02-28T05:25:39;6.40;;;4.50;;
54408;SDS011;40315;48.620;9.828;2023-02-28T05:28:07;7.07;;;5.33;;
54408;SDS011;40315;48.620;9.828;2023-02-28T05:30:34;6.40;;;4.47;;
54408;SDS011;40315;48.620;9.828;2023-02-28T05:33:02;8.13;;;4.77;;
54408;SDS011;40315;48.620;9.828;2023-02-28T05:35:31;7.13;;;4.53;;
54408;SDS011;40315;48.620;9.828;2023-02-28T05:37:59;6.37;;;4.40;;
54408;SDS011;40315;48.620;9.828;2023-02-28T05:40:26;7.47;;;4.30;;
54408;SDS011;40315;48.620;9.828;2023-02-28T05:42:54;5.00;;;4.17;;
54408;SDS011;40315;48.620;9.828;2023-02-28T05:45:21;6.93;;;4.60;;
54408;SDS011;40315;48.620;9.828;2023-02-28T05:47:52;5.60;;;4.20;;
54408;SDS011;40315;48.620;9.828;2023-02-28T05:50:20;6.60;;;4.50;;
54408;SDS011;40315;48.620;9.828;2023-02-28T05:52:50;7.17;;;4.73;;
54408;SDS011;40315;48.620;9.828;2023-02-28T05:55:17;8.17;;;4.40;;
54408;SDS011;40315;48.620;9.828;2023-02-28T05:57:45;6.00;;;4.20;;
54408;SDS011;40315;48.620;9.828;2023-02-28T06:00:13;6.87;;;4.20;;
54408;SDS011;40315;48.620;9.828;2023-02-28T06:02:43;8.00;;;4.43;;
54408;SDS011;40315;48.620;9.828;2023-02-28T06:05:13;7.83;;;5.17;;
54408;SDS011;40315;48.620;9.828;2023-02-28T06:07:41;7.27;;;4.67;;
54408;SDS011;40315;48.620;9.828;2023-02-28T06:10:11;7.00;;;4.60;;
54408;SDS011;40315;48.620;9.828;2023-02-28T06:12:39;6.20;;;4.40;;
54408;SDS011;40315;48.620;9.828;2023-02-28T06:15:09;6.50;;;4.43;;
54408;SDS011;40315;48.620;9.828;2023-02-28T06:17:38;7.80;;;4.83;;
54408;SDS011;40315;48.620;9.828;2023-02-28T06:20:06;6.70;;;5.10;;
54408;SDS011;40315;48.620;9.828;2023-02-28T06:22:34;13.23;;;7.23;;
54408;SDS011;40315;48.620;9.828;2023-02-28T06:25:02;9.17;;;4.83;;
54408;SDS011;40315;48.620;9.828;2023-02-28T06:27:31;7.60;;;4.70;;
54408;SDS011;40315;48.620;9.828;2023-02-28T06:29:58;9.30;;;5.00;;
54408;SDS011;40315;48.620;9.828;2023-02-28T06:32:26;8.17;;;4.63;;
54408;SDS011;40315;48.620;9.828;2023-02-28T06:34:53;10.17;;;5.03;;
54408;SDS011;40315;48.620;9.828;2023-02-28T06:37:22;8.87;;;5.67;;
54408;SDS011;40315;48.620;9.828;2023-02-28T06:39:51;7.03;;;5.07;;
54408;SDS011;40315;48.620;9.828;2023-02-28T06:42:18;7.73;;;5.10;;
54408;SDS011;40315;48.620;9.828;2023-02-28T06:44:48;12.00;;;6.07;;
54408;SDS011;40315;48.620;9.828;2023-02-28T06:47:15;9.90;;;5.50;;
54408;SDS011;40315;48.620;9.828;2023-02-28T06:49:43;8.60;;;5.80;;
54408;SDS011;40315;48.620;9.828;2023-02-28T06:52:10;8.73;;;5.40;;
54408;SDS011;40315;48.620;9.828;2023-02-28T06:54:38;7.87;;;5.30;;
54408;SDS011;40315;48.620;9.828;2023-02-28T06:57:06;11.10;;;6.10;;
54408;SDS011;40315;48.620;9.828;2023-02-28T06:59:34;10.57;;;5.77;;
54408;SDS011;40315;48.620;9.828;2023-02-28T07:02:03;8.13;;;5.27;;
54408;SDS011;40315;48.620;9.828;2023-02-28T07:04:31;10.20;;;6.20;;
54408;SDS011;40315;48.620;9.828;2023-02-28T07:06:58;9.77;;;6.27;;
54408;SDS011;40315;48.620;9.828;2023-02-28T07:09:26;10.63;;;5.77;;
54408;SDS011;40315;48.620;9.828;2023-02-28T07:11:55;8.50;;;5.93;;
54408;SDS011;40315;48.620;9.828;2023-02-28T07:14:22;10.90;;;6.23;;
54408;SDS011;40315;48.620;9.828;2023-02-28T07:16:50;10.50;;;6.37;;
54408;SDS011;40315;48.620;9.828;2023-02-28T07:19:19;10.77;;;6.30;;
54408;SDS011;40315;48.620;9.828;2023-02-28T07:21:47;9.43;;;6.10;;
54408;SDS011;40315;48.620;9.828;2023-02-28T07:24:14;10.50;;;5.97;;
54408;SDS011;40315;48.620;9.828;2023-02-28T07:26:43;8.83;;;6.20;;
54408;SDS011;40315;48.620;9.828;2023-02-28T07:29:10;11.27;;;5.83;;
54408;SDS011;40315;48.620;9.828;2023-02-28T07:31:38;9.90;;;6.13;;
54408;SDS011;40315;48.620;9.828;2023-02-28T07:36:39;9.03;;;5.73;;
54408;SDS011;40315;48.620;9.828;2023-02-28T07:39:07;7.90;;;5.60;;
54408;SDS011;40315;48.620;9.828;2023-02-28T07:41:35;9.63;;;5.87;;
54408;SDS011;40315;48.620;9.828;2023-02-28T07:44:08;8.73;;;6.10;;
54408;SDS011;40315;48.620;9.828;2023-02-28T07:46:38;8.90;;;6.13;;
54408;SDS011;40315;48.620;9.828;2023-02-28T07:49:05;7.60;;;5.70;;
54408;SDS011;40315;48.620;9.828;2023-02-28T07:51:32;10.87;;;6.73;;
54408;SDS011;40315;48.620;9.828;2023-02-28T07:54:01;11.23;;;7.03;;
54408;SDS011;40315;48.620;9.828;2023-02-28T07:56:29;10.40;;;6.77;;
54408;SDS011;40315;48.620;9.828;2023-02-28T07:58:57;10.00;;;6.90;;
54408;SDS011;40315;48.620;9.828;2023-02-28T08:01:26;11.93;;;6.93;;
54408;SDS011;40315;48.620;9.828;2023-02-28T08:03:54;9.93;;;6.10;;
54408;SDS011;40315;48.620;9.828;2023-02-28T08:06:22;9.53;;;6.40;;
54408;SDS011;40315;48.620;9.828;2023-02-28T08:08:50;9.90;;;6.50;;
54408;SDS011;40315;48.620;9.828;2023-02-28T08:11:20;11.63;;;6.67;;
54408;SDS011;40315;48.620;9.828;2023-02-28T08:13:48;11.20;;;6.07;;
54408;SDS011;40315;48.620;9.828;2023-02-28T08:16:16;9.60;;;6.47;;
54408;SDS011;40315;48.620;9.828;2023-02-28T08:18:47;11.37;;;6.90;;
54408;SDS011;40315;48.620;9.828;2023-02-28T08:21:15;10.83;;;6.37;;
54408;SDS011;40315;48.620;9.828;2023-02-28T08:23:43;9.03;;;5.67;;
54408;SDS011;40315;48.620;9.828;2023-02-28T08:26:12;9.70;;;6.50;;
54408;SDS011;40315;48.620;9.828;2023-02-28T08:28:41;8.23;;;6.10;;
54408;SDS011;40315;48.620;9.828;2023-02-28T08:31:10;9.80;;;6.60;;
54408;SDS011;40315;48.620;9.828;2023-02-28T08:33:43;9.63;;;6.17;;
54408;SDS011;40315;48.620;9.828;2023-02-28T08:36:12;9.13;;;5.87;;
54408;SDS011;40315;48.620;9.828;2023-02-28T08:38:40;8.80;;;6.33;;
54408;SDS011;40315;48.620;9.828;2023-02-28T08:41:09;9.83;;;6.60;;
54408;SDS011;40315;48.620;9.828;2023-02-28T08:43:38;9.77;;;6.13;;
54408;SDS011;40315;48.620;9.828;2023-02-28T08:46:08;9.37;;;6.20;;
54408;SDS011;40315;48.620;9.828;2023-02-28T08:48:39;8.87;;;6.00;;
54408;SDS011;40315;48.620;9.828;2023-02-28T08:51:07;11.90;;;6.37;;
54408;SDS011;40315;48.620;9.828;2023-02-28T08:53:36;9.57;;;6.27;;
54408;SDS011;40315;48.620;9.828;2023-02-28T08:56:05;9.33;;;6.03;;
54408;SDS011;40315;48.620;9.828;2023-02-28T08:58:34;9.50;;;6.10;;
54408;SDS011;40315;48.620;9.828;2023-02-28T09:01:08;8.70;;;6.53;;
54408;SDS011;40315;48.620;9.828;2023-02-28T09:03:36;9.57;;;6.43;;
54408;SDS011;40315;48.620;9.828;2023-02-28T09:06:03;12.30;;;6.50;;
54408;SDS011;40315;48.620;9.828;2023-02-28T09:08:31;9.63;;;7.10;;
54408;SDS011;40315;48.620;9.828;2023-02-28T09:10:59;8.77;;;6.23;;
54408;SDS011;40315;48.620;9.828;2023-02-28T09:13:27;9.90;;;6.90;;
54408;SDS011;40315;48.620;9.828;2023-02-28T09:15:57;9.77;;;6.20;;
54408;SDS011;40315;48.620;9.828;2023-02-28T09:18:27;10.80;;;6.97;;
54408;SDS011;40315;48.620;9.828;2023-02-28T09:20:55;12.70;;;6.77;;
54408;SDS011;40315;48.620;9.828;2023-02-28T09:23:23;13.97;;;7.30;;
54408;SDS011;40315;48.620;9.828;2023-02-28T09:25:51;13.13;;;7.17;;
54408;SDS011;40315;48.620;9.828;2023-02-28T09:28:20;11.83;;;7.63;;
54408;SDS011;40315;48.620;9.828;2023-02-28T09:30:48;13.40;;;7.90;;
54408;SDS011;40315;48.620;9.828;2023-02-28T09:33:19;13.90;;;7.73;;
54408;SDS011;40315;48.620;9.828;2023-02-28T09:35:48;10.37;;;6.53;;
54408;SDS011;40315;48.620;9.828;2023-02-28T09:38:16;11.67;;;7.80;;
54408;SDS011;40315;48.620;9.828;2023-02-28T09:40:45;10.27;;;7.13;;
54408;SDS011;40315;48.620;9.828;2023-02-28T09:43:15;13.37;;;8.93;;
54408;SDS011;40315;48.620;9.828;2023-02-28T09:45:46;9.43;;;7.40;;
54408;SDS011;40315;48.620;9.828;2023-02-28T09:48:18;12.53;;;7.23;;
54408;SDS011;40315;48.620;9.828;2023-02-28T09:50:59;10.70;;;7.57;;
54408;SDS011;40315;48.620;9.828;2023-02-28T09:53:29;10.97;;;7.83;;
54408;SDS011;40315;48.620;9.828;2023-02-28T09:56:01;12.30;;;8.03;;
54408;SDS011;40315;48.620;9.828;2023-02-28T09:58:32;11.97;;;7.10;;
54408;SDS011;40315;48.620;9.828;2023-02-28T10:01:08;12.40;;;7.77;;
54408;SDS011;40315;48.620;9.828;2023-02-28T10:03:39;12.00;;;7.87;;
54408;SDS011;40315;48.620;9.828;2023-02-28T10:06:13;12.33;;;8.17;;
54408;SDS011;40315;48.620;9.828;2023-02-28T10:08:45;11.70;;;8.23;;
54408;SDS011;40315;48.620;9.828;2023-02-28T10:11:18;10.97;;;7.13;;
54408;SDS011;40315;48.620;9.828;2023-02-28T10:13:52;11.80;;;7.87;;
54408;SDS011;40315;48.620;9.828;2023-02-28T10:16:30;12.53;;;7.30;;
54408;SDS011;40315;48.620;9.828;2023-02-28T10:19:02;13.70;;;8.33;;
54408;SDS011;40315;48.620;9.828;2023-02-28T10:21:36;13.20;;;8.10;;
54408;SDS011;40315;48.620;9.828;2023-02-28T10:24:11;10.90;;;7.53;;
54408;SDS011;40315;48.620;9.828;2023-02-28T10:26:47;13.97;;;7.30;;
54408;SDS011;40315;48.620;9.828;2023-02-28T10:29:17;12.83;;;8.10;;
54408;SDS011;40315;48.620;9.828;2023-02-28T10:31:44;11.37;;;7.47;;
54408;SDS011;40315;48.620;9.828;2023-02-28T10:34:11;11.53;;;7.40;;
54408;SDS011;40315;48.620;9.828;2023-02-28T10:36:41;12.13;;;7.70;;
54408;SDS011;40315;48.620;9.828;2023-02-28T10:39:33;10.50;;;7.80;;
54408;SDS011;40315;48.620;9.828;2023-02-28T10:42:01;14.43;;;8.10;;
54408;SDS011;40315;48.620;9.828;2023-02-28T10:44:29;12.30;;;8.20;;
54408;SDS011;40315;48.620;9.828;2023-02-28T10:46:56;10.77;;;7.57;;
54408;SDS011;40315;48.620;9.828;2023-02-28T10:49:24;9.53;;;7.83;;
54408;SDS011;40315;48.620;9.828;2023-02-28T10:51:55;11.47;;;8.40;;
54408;SDS011;40315;48.620;9.828;2023-02-28T10:54:24;11.40;;;7.70;;
54408;SDS011;40315;48.620;9.828;2023-02-28T10:57:05;10.37;;;7.50;;
54408;SDS011;40315;48.620;9.828;2023-02-28T10:59:34;10.13;;;7.47;;
54408;SDS011;40315;48.620;9.828;2023-02-28T11:02:07;10.97;;;7.63;;
54408;SDS011;40315;48.620;9.828;2023-02-28T11:04:57;11.33;;;8.13;;
54408;SDS011;40315;48.620;9.828;2023-02-28T11:07:26;11.47;;;8.20;;
54408;SDS011;40315;48.620;9.828;2023-02-28T11:09:54;11.30;;;7.70;;
54408;SDS011;40315;48.620;9.828;2023-02-28T11:12:23;10.13;;;7.80;;
54408;SDS011;40315;48.620;9.828;2023-02-28T11:14:54;12.87;;;8.27;;
54408;SDS011;40315;48.620;9.828;2023-02-28T11:17:24;11.07;;;7.70;;
54408;SDS011;40315;48.620;9.828;2023-02-28T11:19:55;12.50;;;7.60;;
54408;SDS011;40315;48.620;9.828;2023-02-28T11:22:25;10.80;;;8.40;;
54408;SDS011;40315;48.620;9.828;2023-02-28T11:24:58;10.00;;;7.38;;
54408;SDS011;40315;48.620;9.828;2023-02-28T11:27:45;10.90;;;7.50;;
54408;SDS011;40315;48.620;9.828;2023-02-28T11:30:24;11.27;;;7.45;;
54408;SDS011;40315;48.620;9.828;2023-02-28T11:32:57;9.27;;;7.35;;
54408;SDS011;40315;48.620;9.828;2023-02-28T11:35:26;10.43;;;7.47;;
54408;SDS011;40315;48.620;9.828;2023-02-28T11:37:58;8.82;;;7.22;;
54408;SDS011;40315;48.620;9.828;2023-02-28T11:40:30;10.80;;;8.02;;
54408;SDS011;40315;48.620;9.828;2023-02-28T11:43:06;12.48;;;7.88;;
54408;SDS011;40315;48.620;9.828;2023-02-28T11:45:47;12.30;;;7.63;;
54408;SDS011;40315;48.620;9.828;2023-02-28T11:48:27;11.27;;;7.97;;
54408;SDS011;40315;48.620;9.828;2023-02-28T11:51:06;11.93;;;8.05;;
54408;SDS011;40315;48.620;9.828;2023-02-28T11:53:51;12.82;;;8.35;;
54408;SDS011;40315;48.620;9.828;2023-02-28T11:56:37;13.25;;;8.38;;
54408;SDS011;40315;48.620;9.828;2023-02-28T11:59:14;11.45;;;7.93;;
54408;SDS011;40315;48.620;9.828;2023-02-28T12:02:05;10.10;;;7.35;;
54408;SDS011;40315;48.620;9.828;2023-02-28T12:04:48;11.48;;;7.25;;
54408;SDS011;40315;48.620;9.828;2023-02-28T12:07:29;10.93;;;7.90;;
54408;SDS011;40315;48.620;9.828;2023-02-28T12:10:10;10.32;;;7.38;;
54408;SDS011;40315;48.620;9.828;2023-02-28T12:12:47;10.43;;;7.53;;
54408;SDS011;40315;48.620;9.828;2023-02-28T12:15:32;13.23;;;8.35;;
54408;SDS011;40315;48.620;9.828;2023-02-28T12:21:01;11.55;;;7.95;;
54408;SDS011;40315;48.620;9.828;2023-02-28T12:26:36;10.25;;;7.45;;
54408;SDS011;40315;48.620;9.828;2023-02-28T12:29:09;10.45;;;7.53;;
54408;SDS011;40315;48.620;9.828;2023-02-28T12:31:41;9.57;;;7.35;;
54408;SDS011;40315;48.620;9.828;2023-02-28T12:34:15;10.85;;;7.90;;
54408;SDS011;40315;48.620;9.828;2023-02-28T12:36:46;10.48;;;7.80;;
54408;SDS011;40315;48.620;9.828;2023-02-28T12:39:15;8.73;;;7.22;;
54408;SDS011;40315;48.620;9.828;2023-02-28T12:41:51;11.45;;;7.72;;
54408;SDS011;40315;48.620;9.828;2023-02-28T12:44:26;10.05;;;7.30;;
54408;SDS011;40315;48.620;9.828;2023-02-28T12:46:58;9.77;;;7.43;;
54408;SDS011;40315;48.620;9.828;2023-02-28T12:49:31;10.55;;;7.47;;
54408;SDS011;40315;48.620;9.828;2023-02-28T12:52:03;10.98;;;7.90;;
54408;SDS011;40315;48.620;9.828;2023-02-28T12:54:32;11.57;;;7.32;;
54408;SDS011;40315;48.620;9.828;2023-02-28T12:57:09;10.77;;;7.47;;
54408;SDS011;40315;48.620;9.828;2023-02-28T12:59:41;11.15;;;7.60;;
54408;SDS011;40315;48.620;9.828;2023-02-28T13:05:15;11.02;;;7.22;;
54408;SDS011;40315;48.620;9.828;2023-02-28T13:07:58;9.40;;;6.95;;
54408;SDS011;40315;48.620;9.828;2023-02-28T13:10:39;10.68;;;7.45;;
54408;SDS011;40315;48.620;9.828;2023-02-28T13:13:11;10.35;;;7.65;;
54408;SDS011;40315;48.620;9.828;2023-02-28T13:15:41;12.27;;;8.00;;
54408;SDS011;40315;48.620;9.828;2023-02-28T13:18:27;8.50;;;7.15;;
54408;SDS011;40315;48.620;9.828;2023-02-28T13:20:56;9.35;;;6.93;;
54408;SDS011;40315;48.620;9.828;2023-02-28T13:23:36;9.38;;;7.07;;
54408;SDS011;40315;48.620;9.828;2023-02-28T13:26:23;9.07;;;6.70;;
54408;SDS011;40315;48.620;9.828;2023-02-28T13:29:32;10.32;;;7.15;;
54408;SDS011;40315;48.620;9.828;2023-02-28T13:35:14;9.55;;;6.82;;
54408;SDS011;40315;48.620;9.828;2023-02-28T13:38:09;10.68;;;7.10;;
54408;SDS011;40315;48.620;9.828;2023-02-28T13:40:50;11.52;;;7.70;;
54408;SDS011;40315;48.620;9.828;2023-02-28T13:43:18;10.55;;;6.63;;
54408;SDS011;40315;48.620;9.828;2023-02-28T13:46:09;8.02;;;6.32;;
54408;SDS011;40315;48.620;9.828;2023-02-28T13:48:38;8.43;;;6.20;;
54408;SDS011;40315;48.620;9.828;2023-02-28T13:54:09;7.90;;;6.80;;
54408;SDS011;40315;48.620;9.828;2023-02-28T13:56:48;10.63;;;7.60;;
54408;SDS011;40315;48.620;9.828;2023-02-28T13:59:23;9.63;;;6.50;;
54408;SDS011;40315;48.620;9.828;2023-02-28T14:05:06;9.32;;;6.70;;
54408;SDS011;40315;48.620;9.828;2023-02-28T14:07:43;8.18;;;6.35;;
54408;SDS011;40315;48.620;9.828;2023-02-28T14:10:20;8.27;;;6.43;;
54408;SDS011;40315;48.620;9.828;2023-02-28T14:13:02;8.30;;;6.43;;
54408;SDS011;40315;48.620;9.828;2023-02-28T14:15:39;9.45;;;6.35;;
54408;SDS011;40315;48.620;9.828;2023-02-28T14:18:14;9.25;;;6.25;;
54408;SDS011;40315;48.620;9.828;2023-02-28T14:21:00;8.27;;;6.20;;
54408;SDS011;40315;48.620;9.828;2023-02-28T14:23:47;9.77;;;6.35;;
54408;SDS011;40315;48.620;9.828;2023-02-28T14:26:35;9.73;;;6.55;;
54408;SDS011;40315;48.620;9.828;2023-02-28T14:29:23;9.77;;;6.35;;
54408;SDS011;40315;48.620;9.828;2023-02-28T14:32:21;8.90;;;6.40;;
54408;SDS011;40315;48.620;9.828;2023-02-28T14:34:54;9.88;;;6.40;;
54408;SDS011;40315;48.620;9.828;2023-02-28T14:37:32;7.90;;;6.00;;
54408;SDS011;40315;48.620;9.828;2023-02-28T14:40:04;8.90;;;7.57;;
54408;SDS011;40315;48.620;9.828;2023-02-28T14:42:46;11.50;;;8.43;;
54408;SDS011;40315;48.620;9.828;2023-02-28T14:45:18;11.27;;;7.57;;
54408;SDS011;40315;48.620;9.828;2023-02-28T14:47:46;11.10;;;9.30;;
54408;SDS011;40315;48.620;9.828;2023-02-28T14:50:17;8.48;;;6.57;;
54408;SDS011;40315;48.620;9.828;2023-02-28T14:52:47;8.77;;;6.47;;
54408;SDS011;40315;48.620;9.828;2023-02-28T14:55:18;8.88;;;6.45;;
54408;SDS011;40315;48.620;9.828;2023-02-28T14:57:52;8.25;;;6.85;;
54408;SDS011;40315;48.620;9.828;2023-02-28T15:00:22;7.72;;;6.50;;
54408;SDS011;40315;48.620;9.828;2023-02-28T15:02:50;9.68;;;7.03;;
54408;SDS011;40315;48.620;9.828;2023-02-28T15:05:26;9.23;;;6.47;;
54408;SDS011;40315;48.620;9.828;2023-02-28T15:08:03;7.90;;;6.60;;
54408;SDS011;40315;48.620;9.828;2023-02-28T15:10:32;7.63;;;6.20;;
54408;SDS011;40315;48.620;9.828;2023-02-28T15:13:01;9.43;;;6.47;;
54408;SDS011;40315;48.620;9.828;2023-02-28T15:15:34;10.30;;;7.40;;
54408;SDS011;40315;48.620;9.828;2023-02-28T15:18:08;10.90;;;7.22;;
54408;SDS011;40315;48.620;9.828;2023-02-28T15:20:42;8.20;;;6.57;;
54408;SDS011;40315;48.620;9.828;2023-02-28T15:23:12;9.27;;;6.85;;
54408;SDS011;40315;48.620;9.828;2023-02-28T15:25:41;7.88;;;6.47;;
54408;SDS011;40315;48.620;9.828;2023-02-28T15:28:11;9.25;;;7.53;;
54408;SDS011;40315;48.620;9.828;2023-02-28T15:30:50;9.02;;;7.00;;
54408;SDS011;40315;48.620;9.828;2023-02-28T15:33:20;8.60;;;6.15;;
54408;SDS011;40315;48.620;9.828;2023-02-28T15:35:50;10.95;;;7.22;;
54408;SDS011;40315;48.620;9.828;2023-02-28T15:38:21;10.05;;;6.97;;
54408;SDS011;40315;48.620;9.828;2023-02-28T15:40:54;9.88;;;6.63;;
54408;SDS011;40315;48.620;9.828;2023-02-28T15:43:23;9.75;;;6.40;;
54408;SDS011;40315;48.620;9.828;2023-02-28T15:45:53;8.73;;;6.70;;
54408;SDS011;40315;48.620;9.828;2023-02-28T15:48:24;11.27;;;7.18;;
54408;SDS011;40315;48.620;9.828;2023-02-28T15:50:55;9.13;;;6.65;;
54408;SDS011;40315;48.620;9.828;2023-02-28T15:53:28;9.02;;;6.32;;
54408;SDS011;40315;48.620;9.828;2023-02-28T15:55:58;9.85;;;7.28;;
54408;SDS011;40315;48.620;9.828;2023-02-28T15:58:27;10.35;;;6.65;;
54408;SDS011;40315;48.620;9.828;2023-02-28T16:01:06;10.73;;;7.25;;
54408;SDS011;40315;48.620;9.828;2023-02-28T16:03:43;10.00;;;7.22;;
54408;SDS011;40315;48.620;9.828;2023-02-28T16:06:24;10.38;;;6.78;;
54408;SDS011;40315;48.620;9.828;2023-02-28T16:09:05;8.88;;;6.68;;